EDLW/DTM METAR and TAF weather

Enter ICAO airport designator
Station Type Date Time Source
EDLW METAR 2019/12/13 01:20 UTC NOAA

EDLW 130120Z AUTO 15014KT 9999 // FEW190/// 04/M02 Q0981


Station Type Date Time Source
EDLW Decoded METAR 2019/12/13 01:20 UTC NOAA

Dortmund / Wickede, Germany (EDLW) 51-31N 007-37E
Dec 12, 2019 - 08:20 PM EST / 2019.12.13 0120 UTC
Wind: from the SSE (150 degrees) at 16 MPH (14 KT):0
Visibility: greater than 7 mile(s):0
Sky conditions: mostly clear
Temperature: 39 F (4 C)
Dew Point: 28 F (-2 C)
Relative Humidity: 64%
Pressure (altimeter): 28.97 in. Hg (0981 hPa)
ob: EDLW 130120Z AUTO 15014KT 9999 // FEW190/// 04/M02 Q0981
cycle: 1

Station Type Date Time Source
EDLW TAF 2019/12/12 22:36 UTC NOAA

TAF TAF EDLW 122226Z 1222/1318 CNL

Example: see airport list